sensor_id;sensor_type;location;lat;lon;timestamp;P1;durP1;ratioP1;P2;durP2;ratioP2
51332;SDS011;37417;48.118;11.734;2023-09-07T00:01:52;4.72;;;4.15;;
51332;SDS011;37417;48.118;11.734;2023-09-07T00:04:38;4.80;;;3.60;;
51332;SDS011;37417;48.118;11.734;2023-09-07T00:07:23;5.70;;;3.65;;
51332;SDS011;37417;48.118;11.734;2023-09-07T00:10:09;5.25;;;4.43;;
51332;SDS011;37417;48.118;11.734;2023-09-07T00:12:55;10.25;;;4.43;;
51332;SDS011;37417;48.118;11.734;2023-09-07T00:15:41;6.78;;;5.03;;
51332;SDS011;37417;48.118;11.734;2023-09-07T00:18:27;6.10;;;4.68;;
51332;SDS011;37417;48.118;11.734;2023-09-07T00:21:13;5.07;;;4.10;;
51332;SDS011;37417;48.118;11.734;2023-09-07T00:23:59;8.02;;;5.43;;
51332;SDS011;37417;48.118;11.734;2023-09-07T00:26:49;8.60;;;5.47;;
51332;SDS011;37417;48.118;11.734;2023-09-07T00:29:35;7.60;;;5.57;;
51332;SDS011;37417;48.118;11.734;2023-09-07T00:32:21;9.95;;;6.18;;
51332;SDS011;37417;48.118;11.734;2023-09-07T00:35:08;6.68;;;5.43;;
51332;SDS011;37417;48.118;11.734;2023-09-07T00:37:54;8.63;;;5.25;;
51332;SDS011;37417;48.118;11.734;2023-09-07T00:40:43;8.50;;;5.55;;
51332;SDS011;37417;48.118;11.734;2023-09-07T00:43:30;5.97;;;4.93;;
51332;SDS011;37417;48.118;11.734;2023-09-07T00:46:16;7.13;;;4.85;;
51332;SDS011;37417;48.118;11.734;2023-09-07T00:49:03;6.75;;;4.05;;
51332;SDS011;37417;48.118;11.734;2023-09-07T00:51:50;4.35;;;3.95;;
51332;SDS011;37417;48.118;11.734;2023-09-07T00:54:36;5.00;;;4.35;;
51332;SDS011;37417;48.118;11.734;2023-09-07T00:57:24;6.65;;;4.45;;
51332;SDS011;37417;48.118;11.734;2023-09-07T01:00:10;5.85;;;4.38;;
51332;SDS011;37417;48.118;11.734;2023-09-07T01:02:57;5.95;;;4.68;;
51332;SDS011;37417;48.118;11.734;2023-09-07T01:08:42;5.25;;;3.80;;
51332;SDS011;37417;48.118;11.734;2023-09-07T01:11:35;4.38;;;3.95;;
51332;SDS011;37417;48.118;11.734;2023-09-07T01:14:22;6.55;;;4.20;;
51332;SDS011;37417;48.118;11.734;2023-09-07T01:17:08;4.78;;;3.90;;
51332;SDS011;37417;48.118;11.734;2023-09-07T01:19:55;4.85;;;4.25;;
51332;SDS011;37417;48.118;11.734;2023-09-07T01:22:44;6.93;;;4.32;;
51332;SDS011;37417;48.118;11.734;2023-09-07T01:25:31;5.82;;;4.13;;
51332;SDS011;37417;48.118;11.734;2023-09-07T01:28:17;7.22;;;4.50;;
51332;SDS011;37417;48.118;11.734;2023-09-07T01:31:03;10.77;;;6.93;;
51332;SDS011;37417;48.118;11.734;2023-09-07T01:33:49;13.32;;;7.93;;
51332;SDS011;37417;48.118;11.734;2023-09-07T01:36:35;8.95;;;6.90;;
51332;SDS011;37417;48.118;11.734;2023-09-07T01:39:21;11.82;;;8.25;;
51332;SDS011;37417;48.118;11.734;2023-09-07T01:42:07;9.77;;;6.88;;
51332;SDS011;37417;48.118;11.734;2023-09-07T01:44:53;11.18;;;6.70;;
51332;SDS011;37417;48.118;11.734;2023-09-07T01:47:38;10.18;;;7.03;;
51332;SDS011;37417;48.118;11.734;2023-09-07T01:50:24;13.30;;;5.97;;
51332;SDS011;37417;48.118;11.734;2023-09-07T01:53:11;6.78;;;5.70;;
51332;SDS011;37417;48.118;11.734;2023-09-07T01:55:56;6.97;;;4.80;;
51332;SDS011;37417;48.118;11.734;2023-09-07T01:58:44;10.43;;;5.65;;
51332;SDS011;37417;48.118;11.734;2023-09-07T02:01:30;7.00;;;5.55;;
51332;SDS011;37417;48.118;11.734;2023-09-07T02:04:17;6.25;;;5.40;;
51332;SDS011;37417;48.118;11.734;2023-09-07T02:07:02;6.32;;;5.00;;
51332;SDS011;37417;48.118;11.734;2023-09-07T02:09:49;7.53;;;5.57;;
51332;SDS011;37417;48.118;11.734;2023-09-07T02:12:35;5.43;;;4.72;;
51332;SDS011;37417;48.118;11.734;2023-09-07T02:15:20;8.60;;;5.28;;
51332;SDS011;37417;48.118;11.734;2023-09-07T02:18:06;6.18;;;5.20;;
51332;SDS011;37417;48.118;11.734;2023-09-07T02:20:52;5.32;;;4.68;;
51332;SDS011;37417;48.118;11.734;2023-09-07T02:23:37;8.23;;;4.45;;
51332;SDS011;37417;48.118;11.734;2023-09-07T02:26:23;7.10;;;4.50;;
51332;SDS011;37417;48.118;11.734;2023-09-07T02:29:09;4.57;;;4.18;;
51332;SDS011;37417;48.118;11.734;2023-09-07T02:31:54;5.75;;;4.40;;
51332;SDS011;37417;48.118;11.734;2023-09-07T02:34:40;6.22;;;4.68;;
51332;SDS011;37417;48.118;11.734;2023-09-07T02:37:26;5.88;;;3.65;;
51332;SDS011;37417;48.118;11.734;2023-09-07T02:40:11;6.10;;;4.35;;
51332;SDS011;37417;48.118;11.734;2023-09-07T02:42:57;8.55;;;4.72;;
51332;SDS011;37417;48.118;11.734;2023-09-07T02:45:43;6.13;;;4.75;;
51332;SDS011;37417;48.118;11.734;2023-09-07T02:48:28;5.53;;;4.30;;
51332;SDS011;37417;48.118;11.734;2023-09-07T02:51:14;6.10;;;4.30;;
51332;SDS011;37417;48.118;11.734;2023-09-07T02:54:01;8.27;;;4.70;;
51332;SDS011;37417;48.118;11.734;2023-09-07T02:56:47;8.63;;;4.28;;
51332;SDS011;37417;48.118;11.734;2023-09-07T02:59:34;5.70;;;4.47;;
51332;SDS011;37417;48.118;11.734;2023-09-07T03:02:19;5.53;;;4.45;;
51332;SDS011;37417;48.118;11.734;2023-09-07T03:05:05;4.80;;;4.15;;
51332;SDS011;37417;48.118;11.734;2023-09-07T03:07:51;7.30;;;4.45;;
51332;SDS011;37417;48.118;11.734;2023-09-07T03:10:36;8.73;;;4.55;;
51332;SDS011;37417;48.118;11.734;2023-09-07T03:13:26;5.13;;;4.57;;
51332;SDS011;37417;48.118;11.734;2023-09-07T03:16:11;7.13;;;5.43;;
51332;SDS011;37417;48.118;11.734;2023-09-07T03:18:57;8.20;;;4.40;;
51332;SDS011;37417;48.118;11.734;2023-09-07T03:21:43;10.43;;;5.50;;
51332;SDS011;37417;48.118;11.734;2023-09-07T03:24:29;8.05;;;5.45;;
51332;SDS011;37417;48.118;11.734;2023-09-07T03:27:14;6.82;;;5.32;;
51332;SDS011;37417;48.118;11.734;2023-09-07T03:30:00;7.93;;;4.70;;
51332;SDS011;37417;48.118;11.734;2023-09-07T03:32:46;8.32;;;5.40;;
51332;SDS011;37417;48.118;11.734;2023-09-07T03:35:32;9.55;;;5.53;;
51332;SDS011;37417;48.118;11.734;2023-09-07T03:38:18;6.38;;;5.32;;
51332;SDS011;37417;48.118;11.734;2023-09-07T03:41:04;8.23;;;5.60;;
51332;SDS011;37417;48.118;11.734;2023-09-07T03:43:49;7.45;;;5.25;;
51332;SDS011;37417;48.118;11.734;2023-09-07T03:46:35;9.63;;;5.40;;
51332;SDS011;37417;48.118;11.734;2023-09-07T03:49:20;7.82;;;6.03;;
51332;SDS011;37417;48.118;11.734;2023-09-07T03:52:07;6.43;;;5.20;;
51332;SDS011;37417;48.118;11.734;2023-09-07T03:54:53;6.43;;;5.25;;
51332;SDS011;37417;48.118;11.734;2023-09-07T03:57:40;5.43;;;4.93;;
51332;SDS011;37417;48.118;11.734;2023-09-07T04:00:25;5.55;;;5.05;;
51332;SDS011;37417;48.118;11.734;2023-09-07T04:03:11;5.57;;;4.85;;
51332;SDS011;37417;48.118;11.734;2023-09-07T04:05:57;6.25;;;5.35;;
51332;SDS011;37417;48.118;11.734;2023-09-07T04:08:42;6.13;;;5.20;;
51332;SDS011;37417;48.118;11.734;2023-09-07T04:11:28;7.22;;;5.60;;
51332;SDS011;37417;48.118;11.734;2023-09-07T04:14:14;7.15;;;6.03;;
51332;SDS011;37417;48.118;11.734;2023-09-07T04:17:00;7.05;;;5.75;;
51332;SDS011;37417;48.118;11.734;2023-09-07T04:19:46;7.25;;;5.72;;
51332;SDS011;37417;48.118;11.734;2023-09-07T04:22:31;6.15;;;5.35;;
51332;SDS011;37417;48.118;11.734;2023-09-07T04:25:17;8.90;;;5.75;;
51332;SDS011;37417;48.118;11.734;2023-09-07T04:28:03;5.80;;;5.05;;
51332;SDS011;37417;48.118;11.734;2023-09-07T04:30:49;6.40;;;5.57;;
51332;SDS011;37417;48.118;11.734;2023-09-07T04:33:34;10.85;;;5.72;;
51332;SDS011;37417;48.118;11.734;2023-09-07T04:36:20;5.47;;;4.90;;
51332;SDS011;37417;48.118;11.734;2023-09-07T04:39:06;6.60;;;4.97;;
51332;SDS011;37417;48.118;11.734;2023-09-07T04:41:51;6.50;;;5.18;;
51332;SDS011;37417;48.118;11.734;2023-09-07T04:44:37;5.50;;;4.60;;
51332;SDS011;37417;48.118;11.734;2023-09-07T04:47:23;5.15;;;4.65;;
51332;SDS011;37417;48.118;11.734;2023-09-07T04:50:09;10.20;;;5.07;;
51332;SDS011;37417;48.118;11.734;2023-09-07T04:52:55;10.43;;;5.63;;
51332;SDS011;37417;48.118;11.734;2023-09-07T04:55:40;7.93;;;5.60;;
51332;SDS011;37417;48.118;11.734;2023-09-07T04:58:26;6.85;;;5.65;;
51332;SDS011;37417;48.118;11.734;2023-09-07T05:01:12;6.63;;;5.28;;
51332;SDS011;37417;48.118;11.734;2023-09-07T05:03:58;6.78;;;5.70;;
51332;SDS011;37417;48.118;11.734;2023-09-07T05:06:44;11.20;;;5.90;;
51332;SDS011;37417;48.118;11.734;2023-09-07T05:09:30;6.47;;;5.25;;
51332;SDS011;37417;48.118;11.734;2023-09-07T05:12:16;8.38;;;5.50;;
51332;SDS011;37417;48.118;11.734;2023-09-07T05:15:04;6.63;;;4.97;;
51332;SDS011;37417;48.118;11.734;2023-09-07T05:17:52;5.63;;;4.65;;
51332;SDS011;37417;48.118;11.734;2023-09-07T05:20:38;6.93;;;4.80;;
51332;SDS011;37417;48.118;11.734;2023-09-07T05:23:24;9.40;;;4.68;;
51332;SDS011;37417;48.118;11.734;2023-09-07T05:26:11;5.22;;;4.43;;
51332;SDS011;37417;48.118;11.734;2023-09-07T05:28:57;5.18;;;3.72;;
51332;SDS011;37417;48.118;11.734;2023-09-07T05:31:42;6.80;;;3.83;;
51332;SDS011;37417;48.118;11.734;2023-09-07T05:34:28;7.45;;;4.38;;
51332;SDS011;37417;48.118;11.734;2023-09-07T05:37:15;7.05;;;3.72;;
51332;SDS011;37417;48.118;11.734;2023-09-07T05:40:00;6.90;;;3.38;;
51332;SDS011;37417;48.118;11.734;2023-09-07T05:42:46;6.57;;;3.22;;
51332;SDS011;37417;48.118;11.734;2023-09-07T05:45:34;8.23;;;3.38;;
51332;SDS011;37417;48.118;11.734;2023-09-07T05:48:21;7.63;;;3.47;;
51332;SDS011;37417;48.118;11.734;2023-09-07T05:51:07;6.05;;;3.65;;
51332;SDS011;37417;48.118;11.734;2023-09-07T05:53:54;4.07;;;3.00;;
51332;SDS011;37417;48.118;11.734;2023-09-07T05:56:40;4.60;;;3.15;;
51332;SDS011;37417;48.118;11.734;2023-09-07T05:59:26;4.20;;;3.55;;
51332;SDS011;37417;48.118;11.734;2023-09-07T06:02:11;4.63;;;2.85;;
51332;SDS011;37417;48.118;11.734;2023-09-07T06:04:57;4.10;;;2.90;;
51332;SDS011;37417;48.118;11.734;2023-09-07T06:07:43;7.63;;;3.33;;
51332;SDS011;37417;48.118;11.734;2023-09-07T06:10:32;6.35;;;3.38;;
51332;SDS011;37417;48.118;11.734;2023-09-07T06:13:18;6.65;;;3.60;;
51332;SDS011;37417;48.118;11.734;2023-09-07T06:16:04;4.88;;;2.80;;
51332;SDS011;37417;48.118;11.734;2023-09-07T06:18:49;5.47;;;3.00;;
51332;SDS011;37417;48.118;11.734;2023-09-07T06:21:35;7.35;;;3.13;;
51332;SDS011;37417;48.118;11.734;2023-09-07T06:24:21;9.02;;;2.92;;
51332;SDS011;37417;48.118;11.734;2023-09-07T06:27:06;8.77;;;3.00;;
51332;SDS011;37417;48.118;11.734;2023-09-07T06:29:52;5.95;;;2.95;;
51332;SDS011;37417;48.118;11.734;2023-09-07T06:32:38;7.88;;;2.85;;
51332;SDS011;37417;48.118;11.734;2023-09-07T06:35:23;8.90;;;2.83;;
51332;SDS011;37417;48.118;11.734;2023-09-07T06:38:09;8.57;;;2.92;;
51332;SDS011;37417;48.118;11.734;2023-09-07T06:40:55;7.10;;;2.90;;
51332;SDS011;37417;48.118;11.734;2023-09-07T06:43:40;5.20;;;2.78;;
51332;SDS011;37417;48.118;11.734;2023-09-07T06:46:26;3.92;;;3.10;;
51332;SDS011;37417;48.118;11.734;2023-09-07T06:49:12;4.95;;;3.05;;
51332;SDS011;37417;48.118;11.734;2023-09-07T06:51:58;4.18;;;2.95;;
51332;SDS011;37417;48.118;11.734;2023-09-07T06:54:44;4.03;;;2.67;;
51332;SDS011;37417;48.118;11.734;2023-09-07T06:57:29;3.67;;;3.25;;
51332;SDS011;37417;48.118;11.734;2023-09-07T07:00:15;4.82;;;3.47;;
51332;SDS011;37417;48.118;11.734;2023-09-07T07:03:01;4.68;;;3.30;;
51332;SDS011;37417;48.118;11.734;2023-09-07T07:05:46;5.88;;;3.33;;
51332;SDS011;37417;48.118;11.734;2023-09-07T07:08:32;4.65;;;3.17;;
51332;SDS011;37417;48.118;11.734;2023-09-07T07:11:18;4.25;;;3.15;;
51332;SDS011;37417;48.118;11.734;2023-09-07T07:14:04;4.05;;;3.08;;
51332;SDS011;37417;48.118;11.734;2023-09-07T07:16:49;4.60;;;3.25;;
51332;SDS011;37417;48.118;11.734;2023-09-07T07:19:35;4.07;;;3.13;;
51332;SDS011;37417;48.118;11.734;2023-09-07T07:22:22;4.07;;;3.03;;
51332;SDS011;37417;48.118;11.734;2023-09-07T07:25:08;3.22;;;2.60;;
51332;SDS011;37417;48.118;11.734;2023-09-07T07:27:53;5.13;;;3.15;;
51332;SDS011;37417;48.118;11.734;2023-09-07T07:30:39;5.00;;;3.10;;
51332;SDS011;37417;48.118;11.734;2023-09-07T07:33:28;5.32;;;2.83;;
51332;SDS011;37417;48.118;11.734;2023-09-07T07:36:13;5.68;;;2.75;;
51332;SDS011;37417;48.118;11.734;2023-09-07T07:38:59;3.28;;;2.60;;
51332;SDS011;37417;48.118;11.734;2023-09-07T07:41:45;3.05;;;2.58;;
51332;SDS011;37417;48.118;11.734;2023-09-07T07:44:31;6.45;;;3.03;;
51332;SDS011;37417;48.118;11.734;2023-09-07T07:47:17;5.82;;;2.88;;
51332;SDS011;37417;48.118;11.734;2023-09-07T07:50:03;4.65;;;2.75;;
51332;SDS011;37417;48.118;11.734;2023-09-07T07:52:50;3.38;;;2.55;;
51332;SDS011;37417;48.118;11.734;2023-09-07T07:55:36;3.83;;;2.90;;
51332;SDS011;37417;48.118;11.734;2023-09-07T07:58:24;3.97;;;2.67;;
51332;SDS011;37417;48.118;11.734;2023-09-07T08:01:15;4.68;;;2.97;;
51332;SDS011;37417;48.118;11.734;2023-09-07T08:04:03;3.28;;;2.85;;
51332;SDS011;37417;48.118;11.734;2023-09-07T08:06:48;8.15;;;2.30;;
51332;SDS011;37417;48.118;11.734;2023-09-07T08:09:34;3.53;;;2.72;;
51332;SDS011;37417;48.118;11.734;2023-09-07T08:12:20;2.95;;;2.75;;
51332;SDS011;37417;48.118;11.734;2023-09-07T08:15:06;5.72;;;2.22;;
51332;SDS011;37417;48.118;11.734;2023-09-07T08:17:52;6.65;;;2.80;;
51332;SDS011;37417;48.118;11.734;2023-09-07T08:20:37;4.32;;;2.92;;
51332;SDS011;37417;48.118;11.734;2023-09-07T08:23:25;3.33;;;2.45;;
51332;SDS011;37417;48.118;11.734;2023-09-07T08:26:11;3.72;;;2.70;;
51332;SDS011;37417;48.118;11.734;2023-09-07T08:28:58;3.25;;;2.83;;
51332;SDS011;37417;48.118;11.734;2023-09-07T08:31:43;5.72;;;2.90;;
51332;SDS011;37417;48.118;11.734;2023-09-07T08:34:30;4.82;;;2.78;;
51332;SDS011;37417;48.118;11.734;2023-09-07T08:37:16;5.43;;;2.90;;
51332;SDS011;37417;48.118;11.734;2023-09-07T08:40:02;6.18;;;2.67;;
51332;SDS011;37417;48.118;11.734;2023-09-07T08:42:49;3.28;;;2.50;;
51332;SDS011;37417;48.118;11.734;2023-09-07T08:45:37;3.38;;;2.42;;
51332;SDS011;37417;48.118;11.734;2023-09-07T08:48:27;3.92;;;2.67;;
51332;SDS011;37417;48.118;11.734;2023-09-07T08:51:17;4.22;;;2.90;;
51332;SDS011;37417;48.118;11.734;2023-09-07T08:54:04;2.83;;;2.55;;
51332;SDS011;37417;48.118;11.734;2023-09-07T08:56:52;3.50;;;2.30;;
51332;SDS011;37417;48.118;11.734;2023-09-07T08:59:38;2.42;;;2.22;;
51332;SDS011;37417;48.118;11.734;2023-09-07T09:02:23;4.28;;;2.78;;
51332;SDS011;37417;48.118;11.734;2023-09-07T09:05:09;2.60;;;2.40;;
51332;SDS011;37417;48.118;11.734;2023-09-07T09:08:02;2.90;;;2.47;;
51332;SDS011;37417;48.118;11.734;2023-09-07T09:11:01;3.13;;;2.33;;
51332;SDS011;37417;48.118;11.734;2023-09-07T09:13:49;6.03;;;2.38;;
51332;SDS011;37417;48.118;11.734;2023-09-07T09:16:37;3.10;;;2.22;;
51332;SDS011;37417;48.118;11.734;2023-09-07T09:19:32;3.35;;;2.35;;
51332;SDS011;37417;48.118;11.734;2023-09-07T09:22:19;3.78;;;2.13;;
51332;SDS011;37417;48.118;11.734;2023-09-07T09:25:05;3.05;;;2.45;;
51332;SDS011;37417;48.118;11.734;2023-09-07T09:27:53;2.17;;;1.98;;
51332;SDS011;37417;48.118;11.734;2023-09-07T09:30:38;4.35;;;2.60;;
51332;SDS011;37417;48.118;11.734;2023-09-07T09:33:25;3.30;;;2.45;;
51332;SDS011;37417;48.118;11.734;2023-09-07T09:36:13;3.60;;;2.50;;
51332;SDS011;37417;48.118;11.734;2023-09-07T09:38:59;2.80;;;2.47;;
51332;SDS011;37417;48.118;11.734;2023-09-07T09:41:45;6.18;;;2.42;;
51332;SDS011;37417;48.118;11.734;2023-09-07T09:44:31;7.15;;;2.80;;
51332;SDS011;37417;48.118;11.734;2023-09-07T09:47:17;5.50;;;2.13;;
51332;SDS011;37417;48.118;11.734;2023-09-07T09:50:04;2.38;;;2.17;;
51332;SDS011;37417;48.118;11.734;2023-09-07T09:52:52;4.93;;;2.25;;
51332;SDS011;37417;48.118;11.734;2023-09-07T09:55:41;4.50;;;2.70;;
51332;SDS011;37417;48.118;11.734;2023-09-07T09:58:26;4.80;;;2.20;;
51332;SDS011;37417;48.118;11.734;2023-09-07T10:01:13;4.93;;;2.40;;
51332;SDS011;37417;48.118;11.734;2023-09-07T10:04:01;4.53;;;2.30;;
51332;SDS011;37417;48.118;11.734;2023-09-07T10:06:54;2.40;;;2.20;;
51332;SDS011;37417;48.118;11.734;2023-09-07T10:09:44;4.07;;;2.50;;
51332;SDS011;37417;48.118;11.734;2023-09-07T10:12:30;3.05;;;2.30;;
51332;SDS011;37417;48.118;11.734;2023-09-07T10:15:25;2.17;;;1.98;;
51332;SDS011;37417;48.118;11.734;2023-09-07T10:18:13;5.47;;;2.55;;
51332;SDS011;37417;48.118;11.734;2023-09-07T10:21:03;2.95;;;2.22;;
51332;SDS011;37417;48.118;11.734;2023-09-07T10:23:50;2.65;;;2.08;;
51332;SDS011;37417;48.118;11.734;2023-09-07T10:26:37;2.15;;;1.95;;
51332;SDS011;37417;48.118;11.734;2023-09-07T10:29:24;3.00;;;2.53;;
51332;SDS011;37417;48.118;11.734;2023-09-07T10:32:11;6.68;;;2.15;;
51332;SDS011;37417;48.118;11.734;2023-09-07T10:35:00;2.42;;;2.00;;
51332;SDS011;37417;48.118;11.734;2023-09-07T10:37:45;3.70;;;2.83;;
51332;SDS011;37417;48.118;11.734;2023-09-07T10:40:34;2.55;;;2.35;;
51332;SDS011;37417;48.118;11.734;2023-09-07T10:43:20;3.90;;;2.80;;
51332;SDS011;37417;48.118;11.734;2023-09-07T10:46:06;5.72;;;2.80;;
51332;SDS011;37417;48.118;11.734;2023-09-07T10:48:52;2.42;;;2.22;;
51332;SDS011;37417;48.118;11.734;2023-09-07T10:51:41;4.25;;;2.53;;
51332;SDS011;37417;48.118;11.734;2023-09-07T10:54:29;2.35;;;1.90;;
51332;SDS011;37417;48.118;11.734;2023-09-07T10:57:15;3.45;;;2.10;;
51332;SDS011;37417;48.118;11.734;2023-09-07T11:00:03;2.80;;;2.08;;
51332;SDS011;37417;48.118;11.734;2023-09-07T11:02:49;2.83;;;2.20;;
51332;SDS011;37417;48.118;11.734;2023-09-07T11:05:35;3.17;;;2.25;;
51332;SDS011;37417;48.118;11.734;2023-09-07T11:08:22;2.30;;;2.10;;
51332;SDS011;37417;48.118;11.734;2023-09-07T11:11:08;2.15;;;1.90;;
51332;SDS011;37417;48.118;11.734;2023-09-07T11:13:56;2.55;;;2.35;;
51332;SDS011;37417;48.118;11.734;2023-09-07T11:16:42;3.13;;;2.20;;
51332;SDS011;37417;48.118;11.734;2023-09-07T11:19:31;2.22;;;1.90;;
51332;SDS011;37417;48.118;11.734;2023-09-07T11:22:17;3.65;;;2.28;;
51332;SDS011;37417;48.118;11.734;2023-09-07T11:25:05;2.88;;;2.25;;
51332;SDS011;37417;48.118;11.734;2023-09-07T11:27:53;3.63;;;1.95;;
51332;SDS011;37417;48.118;11.734;2023-09-07T11:30:53;2.35;;;2.05;;
51332;SDS011;37417;48.118;11.734;2023-09-07T11:33:40;5.80;;;2.13;;
51332;SDS011;37417;48.118;11.734;2023-09-07T11:36:26;2.40;;;2.17;;
51332;SDS011;37417;48.118;11.734;2023-09-07T11:39:13;3.08;;;2.47;;
51332;SDS011;37417;48.118;11.734;2023-09-07T11:41:58;2.83;;;2.00;;
51332;SDS011;37417;48.118;11.734;2023-09-07T11:44:44;2.38;;;2.08;;
51332;SDS011;37417;48.118;11.734;2023-09-07T11:47:30;2.80;;;2.60;;
51332;SDS011;37417;48.118;11.734;2023-09-07T11:50:18;2.60;;;1.90;;
51332;SDS011;37417;48.118;11.734;2023-09-07T11:53:06;3.55;;;2.20;;
51332;SDS011;37417;48.118;11.734;2023-09-07T11:55:52;2.42;;;2.10;;
51332;SDS011;37417;48.118;11.734;2023-09-07T11:58:38;3.33;;;2.13;;
51332;SDS011;37417;48.118;11.734;2023-09-07T12:01:23;3.03;;;2.22;;
51332;SDS011;37417;48.118;11.734;2023-09-07T12:04:09;4.93;;;1.98;;
51332;SDS011;37417;48.118;11.734;2023-09-07T12:06:55;3.40;;;2.28;;
51332;SDS011;37417;48.118;11.734;2023-09-07T12:09:41;2.80;;;2.03;;
51332;SDS011;37417;48.118;11.734;2023-09-07T12:12:26;4.32;;;2.33;;
51332;SDS011;37417;48.118;11.734;2023-09-07T12:15:12;3.00;;;1.95;;
51332;SDS011;37417;48.118;11.734;2023-09-07T12:17:58;2.20;;;1.92;;
51332;SDS011;37417;48.118;11.734;2023-09-07T12:20:44;2.42;;;2.22;;
51332;SDS011;37417;48.118;11.734;2023-09-07T12:23:30;3.80;;;1.98;;
51332;SDS011;37417;48.118;11.734;2023-09-07T12:26:15;4.07;;;2.25;;
51332;SDS011;37417;48.118;11.734;2023-09-07T12:29:06;2.47;;;2.22;;
51332;SDS011;37417;48.118;11.734;2023-09-07T12:31:53;3.75;;;2.95;;
51332;SDS011;37417;48.118;11.734;2023-09-07T12:34:38;2.05;;;1.85;;
51332;SDS011;37417;48.118;11.734;2023-09-07T12:37:24;4.68;;;1.50;;
51332;SDS011;37417;48.118;11.734;2023-09-07T12:40:10;2.65;;;1.92;;
51332;SDS011;37417;48.118;11.734;2023-09-07T12:42:58;2.45;;;1.90;;
51332;SDS011;37417;48.118;11.734;2023-09-07T12:45:43;2.65;;;1.98;;
51332;SDS011;37417;48.118;11.734;2023-09-07T12:48:29;2.45;;;2.10;;
51332;SDS011;37417;48.118;11.734;2023-09-07T12:51:15;2.10;;;1.90;;
51332;SDS011;37417;48.118;11.734;2023-09-07T12:54:01;1.85;;;1.60;;
51332;SDS011;37417;48.118;11.734;2023-09-07T12:56:48;2.38;;;1.73;;
51332;SDS011;37417;48.118;11.734;2023-09-07T12:59:34;2.63;;;2.00;;
51332;SDS011;37417;48.118;11.734;2023-09-07T13:02:19;2.08;;;1.88;;
51332;SDS011;37417;48.118;11.734;2023-09-07T13:05:05;13.20;;;2.22;;
51332;SDS011;37417;48.118;11.734;2023-09-07T13:07:51;2.97;;;1.88;;
51332;SDS011;37417;48.118;11.734;2023-09-07T13:10:37;2.28;;;1.73;;
51332;SDS011;37417;48.118;11.734;2023-09-07T13:13:24;2.85;;;2.05;;
51332;SDS011;37417;48.118;11.734;2023-09-07T13:16:14;1.95;;;1.60;;
51332;SDS011;37417;48.118;11.734;2023-09-07T13:19:00;4.57;;;1.70;;
51332;SDS011;37417;48.118;11.734;2023-09-07T13:21:46;3.33;;;1.67;;
51332;SDS011;37417;48.118;11.734;2023-09-07T13:24:31;1.65;;;1.55;;
51332;SDS011;37417;48.118;11.734;2023-09-07T13:27:17;1.67;;;1.58;;
51332;SDS011;37417;48.118;11.734;2023-09-07T13:30:03;4.63;;;2.08;;
51332;SDS011;37417;48.118;11.734;2023-09-07T13:32:50;2.65;;;1.67;;
51332;SDS011;37417;48.118;11.734;2023-09-07T13:35:36;1.80;;;1.70;;
51332;SDS011;37417;48.118;11.734;2023-09-07T13:38:21;2.58;;;2.05;;
51332;SDS011;37417;48.118;11.734;2023-09-07T13:41:07;3.30;;;2.10;;
51332;SDS011;37417;48.118;11.734;2023-09-07T13:43:53;3.60;;;2.13;;
51332;SDS011;37417;48.118;11.734;2023-09-07T13:46:39;1.98;;;1.73;;
51332;SDS011;37417;48.118;11.734;2023-09-07T13:49:25;2.05;;;1.63;;
51332;SDS011;37417;48.118;11.734;2023-09-07T13:52:10;1.95;;;1.60;;
51332;SDS011;37417;48.118;11.734;2023-09-07T13:54:56;3.42;;;1.80;;
51332;SDS011;37417;48.118;11.734;2023-09-07T13:57:42;2.50;;;1.92;;
51332;SDS011;37417;48.118;11.734;2023-09-07T14:00:27;2.22;;;1.50;;
51332;SDS011;37417;48.118;11.734;2023-09-07T14:03:13;2.42;;;2.00;;
51332;SDS011;37417;48.118;11.734;2023-09-07T14:05:59;1.85;;;1.55;;
51332;SDS011;37417;48.118;11.734;2023-09-07T14:08:44;1.83;;;1.48;;
51332;SDS011;37417;48.118;11.734;2023-09-07T14:11:31;2.70;;;2.05;;
51332;SDS011;37417;48.118;11.734;2023-09-07T14:14:18;1.73;;;1.60;;
51332;SDS011;37417;48.118;11.734;2023-09-07T14:17:04;4.57;;;1.77;;
51332;SDS011;37417;48.118;11.734;2023-09-07T14:19:51;2.00;;;1.48;;
51332;SDS011;37417;48.118;11.734;2023-09-07T14:22:37;2.35;;;1.90;;
51332;SDS011;37417;48.118;11.734;2023-09-07T14:25:22;2.15;;;1.77;;
51332;SDS011;37417;48.118;11.734;2023-09-07T14:28:08;2.72;;;1.98;;
51332;SDS011;37417;48.118;11.734;2023-09-07T14:30:54;2.10;;;1.90;;
51332;SDS011;37417;48.118;11.734;2023-09-07T14:33:40;2.03;;;1.67;;
51332;SDS011;37417;48.118;11.734;2023-09-07T14:36:27;2.50;;;1.88;;
51332;SDS011;37417;48.118;11.734;2023-09-07T14:39:13;2.20;;;1.85;;
51332;SDS011;37417;48.118;11.734;2023-09-07T14:41:59;8.18;;;2.03;;
51332;SDS011;37417;48.118;11.734;2023-09-07T14:44:46;2.13;;;1.73;;
51332;SDS011;37417;48.118;11.734;2023-09-07T14:47:32;2.08;;;1.88;;
51332;SDS011;37417;48.118;11.734;2023-09-07T14:50:18;2.22;;;1.70;;
51332;SDS011;37417;48.118;11.734;2023-09-07T14:53:04;4.35;;;1.83;;
51332;SDS011;37417;48.118;11.734;2023-09-07T14:55:51;2.33;;;1.90;;
51332;SDS011;37417;48.118;11.734;2023-09-07T14:58:37;1.92;;;1.48;;
51332;SDS011;37417;48.118;11.734;2023-09-07T15:01:23;3.63;;;1.70;;
51332;SDS011;37417;48.118;11.734;2023-09-07T15:04:08;1.88;;;1.42;;
51332;SDS011;37417;48.118;11.734;2023-09-07T15:06:54;2.00;;;1.63;;
51332;SDS011;37417;48.118;11.734;2023-09-07T15:09:40;2.78;;;1.40;;
51332;SDS011;37417;48.118;11.734;2023-09-07T15:12:25;2.20;;;1.38;;
51332;SDS011;37417;48.118;11.734;2023-09-07T15:15:11;4.10;;;1.92;;
51332;SDS011;37417;48.118;11.734;2023-09-07T15:17:57;1.70;;;1.60;;
51332;SDS011;37417;48.118;11.734;2023-09-07T15:20:42;2.55;;;1.63;;
51332;SDS011;37417;48.118;11.734;2023-09-07T15:23:28;2.60;;;1.65;;
51332;SDS011;37417;48.118;11.734;2023-09-07T15:26:14;3.28;;;2.13;;
51332;SDS011;37417;48.118;11.734;2023-09-07T15:29:02;2.53;;;2.08;;
51332;SDS011;37417;48.118;11.734;2023-09-07T15:31:48;3.08;;;1.77;;
51332;SDS011;37417;48.118;11.734;2023-09-07T15:34:35;3.25;;;2.05;;
51332;SDS011;37417;48.118;11.734;2023-09-07T15:37:21;5.07;;;1.90;;
51332;SDS011;37417;48.118;11.734;2023-09-07T15:40:08;3.75;;;1.85;;
51332;SDS011;37417;48.118;11.734;2023-09-07T15:42:56;3.15;;;1.80;;
51332;SDS011;37417;48.118;11.734;2023-09-07T15:45:42;2.08;;;1.67;;
51332;SDS011;37417;48.118;11.734;2023-09-07T15:48:28;2.28;;;1.92;;
51332;SDS011;37417;48.118;11.734;2023-09-07T15:51:13;2.20;;;2.00;;
51332;SDS011;37417;48.118;11.734;2023-09-07T15:53:59;1.98;;;1.73;;
51332;SDS011;37417;48.118;11.734;2023-09-07T15:56:45;2.42;;;1.38;;
51332;SDS011;37417;48.118;11.734;2023-09-07T15:59:31;2.17;;;1.88;;
51332;SDS011;37417;48.118;11.734;2023-09-07T16:02:17;5.22;;;2.00;;
51332;SDS011;37417;48.118;11.734;2023-09-07T16:05:03;4.15;;;2.03;;
51332;SDS011;37417;48.118;11.734;2023-09-07T16:07:48;2.08;;;1.67;;
51332;SDS011;37417;48.118;11.734;2023-09-07T16:10:34;3.63;;;2.08;;
51332;SDS011;37417;48.118;11.734;2023-09-07T16:13:23;2.25;;;1.92;;
51332;SDS011;37417;48.118;11.734;2023-09-07T16:16:09;2.58;;;2.00;;
51332;SDS011;37417;48.118;11.734;2023-09-07T16:18:55;2.90;;;1.70;;
51332;SDS011;37417;48.118;11.734;2023-09-07T16:21:41;2.53;;;2.08;;
51332;SDS011;37417;48.118;11.734;2023-09-07T16:24:26;2.15;;;1.80;;
51332;SDS011;37417;48.118;11.734;2023-09-07T16:27:14;3.95;;;1.77;;
51332;SDS011;37417;48.118;11.734;2023-09-07T16:30:00;4.22;;;1.90;;